메인 페이지
METAR-TAF:

METAR-TAF

공항 :

아비장, 코트디부아르

위도: 05-15N, 경도: 003-56W, 고도: 7m

현재 날씨관측

예보는 20분 전, 23:00시(UTC)에 발표되었습니다.
남남서6kt
온도 27°C
습도 89%
기압 1014 hPa
시정 10km 이상
고도 1200ft 상공 구름 조금

METAR: DIAP 012300Z 20006KT 9999 FEW012 27/25 Q1014 NOSIG

시각: 23:20 (23:20 UTC)

예보

예보는 6 시간 20분 전, 17:00시(UTC)에 발표되었습니다.
예보 대상 시간: 01일 18시부터 02일 24시까지 (UTC)
남서6kt
시정 10km 이상
고도 1200ft 상공 구름 보통
확률 30% :
일시적
01일 18시부터 01일 24시까지 (UTC)
고도 1200ft 상공 구름 많음
고도 2000ft 상공 구름 조금, 적란운.
뇌우
일시적
02일 15시부터 02일 21시까지 (UTC)
고도 1200ft 상공 구름 많음
고도 2000ft 상공 구름 조금, 적란운.
뇌우

TAF: DIAP 011700Z 0118/0224 22006KT 9999 SCT012 PROB30 TEMPO 0118/0124 TS BKN012 FEW020CB TEMPO 0215/0221 TS BKN012 FEW020CB

4,000개 이상의 공항 관측 자료 및 예보 (METAR 및 TAF 보고).

지도상에서 검색 가능한 기상관측소가 노란 점과 빨간 점으로 표시되어 있습니다.

기상관측소 명을 보려면 표시 위로 마우스를 이동하세요.

날씨 관측과 예보를 보려면 클릭하세요.

지도 변경 : 확대하려면 엑스 표시가 있는 녹색 버튼, 축소하려면 빼기 표시가 있는 녹색 버튼, 다음 페이지의 지도를 보려면 녹색 화살표를 클릭하세요.


METAR-TAF: